sensor_id;sensor_type;location;lat;lon;timestamp;P1;durP1;ratioP1;P2;durP2;ratioP2
19747;SDS011;10032;51.386;12.516;2023-02-22T00:00:14;3.07;;;2.23;;
19747;SDS011;10032;51.386;12.516;2023-02-22T00:02:51;3.27;;;2.20;;
19747;SDS011;10032;51.386;12.516;2023-02-22T00:05:24;2.87;;;2.50;;
19747;SDS011;10032;51.386;12.516;2023-02-22T00:07:55;2.67;;;2.03;;
19747;SDS011;10032;51.386;12.516;2023-02-22T00:10:21;4.30;;;3.27;;
19747;SDS011;10032;51.386;12.516;2023-02-22T00:12:52;4.23;;;3.00;;
19747;SDS011;10032;51.386;12.516;2023-02-22T00:15:20;3.87;;;2.73;;
19747;SDS011;10032;51.386;12.516;2023-02-22T00:17:47;2.93;;;2.20;;
19747;SDS011;10032;51.386;12.516;2023-02-22T00:20:13;3.30;;;2.67;;
19747;SDS011;10032;51.386;12.516;2023-02-22T00:22:45;2.93;;;2.47;;
19747;SDS011;10032;51.386;12.516;2023-02-22T00:25:15;4.17;;;2.60;;
19747;SDS011;10032;51.386;12.516;2023-02-22T00:27:44;3.70;;;2.53;;
19747;SDS011;10032;51.386;12.516;2023-02-22T00:30:16;4.47;;;2.77;;
19747;SDS011;10032;51.386;12.516;2023-02-22T00:32:47;5.27;;;2.17;;
19747;SDS011;10032;51.386;12.516;2023-02-22T00:35:17;4.10;;;2.63;;
19747;SDS011;10032;51.386;12.516;2023-02-22T00:37:48;5.40;;;3.33;;
19747;SDS011;10032;51.386;12.516;2023-02-22T00:40:19;4.40;;;3.20;;
19747;SDS011;10032;51.386;12.516;2023-02-22T00:42:47;3.50;;;2.43;;
19747;SDS011;10032;51.386;12.516;2023-02-22T00:45:17;3.53;;;2.67;;
19747;SDS011;10032;51.386;12.516;2023-02-22T00:47:45;3.07;;;2.30;;
19747;SDS011;10032;51.386;12.516;2023-02-22T00:50:10;2.17;;;1.97;;
19747;SDS011;10032;51.386;12.516;2023-02-22T00:52:37;4.90;;;2.93;;
19747;SDS011;10032;51.386;12.516;2023-02-22T00:55:03;4.90;;;2.73;;
19747;SDS011;10032;51.386;12.516;2023-02-22T00:57:30;4.47;;;2.63;;
19747;SDS011;10032;51.386;12.516;2023-02-22T00:59:59;3.50;;;2.23;;
19747;SDS011;10032;51.386;12.516;2023-02-22T01:02:25;4.63;;;3.00;;
19747;SDS011;10032;51.386;12.516;2023-02-22T01:04:50;4.17;;;2.77;;
19747;SDS011;10032;51.386;12.516;2023-02-22T01:07:16;3.80;;;3.00;;
19747;SDS011;10032;51.386;12.516;2023-02-22T01:09:41;2.93;;;2.30;;
19747;SDS011;10032;51.386;12.516;2023-02-22T01:12:08;4.03;;;2.97;;
19747;SDS011;10032;51.386;12.516;2023-02-22T01:14:33;3.97;;;2.87;;
19747;SDS011;10032;51.386;12.516;2023-02-22T01:16:59;3.93;;;2.70;;
19747;SDS011;10032;51.386;12.516;2023-02-22T01:19:24;3.20;;;2.63;;
19747;SDS011;10032;51.386;12.516;2023-02-22T01:21:50;3.07;;;2.73;;
19747;SDS011;10032;51.386;12.516;2023-02-22T01:24:16;3.33;;;2.60;;
19747;SDS011;10032;51.386;12.516;2023-02-22T01:26:42;6.50;;;3.17;;
19747;SDS011;10032;51.386;12.516;2023-02-22T01:29:12;3.83;;;2.97;;
19747;SDS011;10032;51.386;12.516;2023-02-22T01:31:39;4.33;;;3.10;;
19747;SDS011;10032;51.386;12.516;2023-02-22T01:34:08;5.60;;;3.03;;
19747;SDS011;10032;51.386;12.516;2023-02-22T01:36:34;5.67;;;2.93;;
19747;SDS011;10032;51.386;12.516;2023-02-22T01:39:00;4.70;;;2.67;;
19747;SDS011;10032;51.386;12.516;2023-02-22T01:41:25;4.03;;;2.90;;
19747;SDS011;10032;51.386;12.516;2023-02-22T01:43:50;4.60;;;3.40;;
19747;SDS011;10032;51.386;12.516;2023-02-22T01:46:22;5.77;;;3.30;;
19747;SDS011;10032;51.386;12.516;2023-02-22T01:48:54;3.60;;;3.00;;
19747;SDS011;10032;51.386;12.516;2023-02-22T01:51:25;4.77;;;2.80;;
19747;SDS011;10032;51.386;12.516;2023-02-22T01:53:54;4.73;;;2.90;;
19747;SDS011;10032;51.386;12.516;2023-02-22T01:56:24;5.67;;;3.87;;
19747;SDS011;10032;51.386;12.516;2023-02-22T01:58:53;3.43;;;2.93;;
19747;SDS011;10032;51.386;12.516;2023-02-22T02:01:24;5.13;;;3.60;;
19747;SDS011;10032;51.386;12.516;2023-02-22T02:03:51;4.07;;;2.47;;
19747;SDS011;10032;51.386;12.516;2023-02-22T02:06:22;5.63;;;2.73;;
19747;SDS011;10032;51.386;12.516;2023-02-22T02:08:52;3.83;;;2.57;;
19747;SDS011;10032;51.386;12.516;2023-02-22T02:11:23;3.00;;;2.20;;
19747;SDS011;10032;51.386;12.516;2023-02-22T02:13:50;3.37;;;2.67;;
19747;SDS011;10032;51.386;12.516;2023-02-22T02:16:21;5.43;;;3.70;;
19747;SDS011;10032;51.386;12.516;2023-02-22T02:18:54;2.33;;;2.03;;
19747;SDS011;10032;51.386;12.516;2023-02-22T02:32:56;4.50;;;3.17;;
19747;SDS011;10032;51.386;12.516;2023-02-22T02:35:29;4.70;;;3.43;;
19747;SDS011;10032;51.386;12.516;2023-02-22T02:43:45;5.20;;;3.43;;
19747;SDS011;10032;51.386;12.516;2023-02-22T02:48:49;4.87;;;2.77;;
19747;SDS011;10032;51.386;12.516;2023-02-22T02:51:20;3.83;;;3.03;;
19747;SDS011;10032;51.386;12.516;2023-02-22T02:53:48;8.17;;;3.63;;
19747;SDS011;10032;51.386;12.516;2023-02-22T02:56:16;4.87;;;3.33;;
19747;SDS011;10032;51.386;12.516;2023-02-22T02:58:47;6.03;;;3.87;;
19747;SDS011;10032;51.386;12.516;2023-02-22T03:01:32;4.83;;;3.70;;
19747;SDS011;10032;51.386;12.516;2023-02-22T03:06:53;2.70;;;2.50;;
19747;SDS011;10032;51.386;12.516;2023-02-22T03:12:18;5.23;;;3.57;;
19747;SDS011;10032;51.386;12.516;2023-02-22T03:20:45;5.40;;;3.47;;
19747;SDS011;10032;51.386;12.516;2023-02-22T03:26:02;6.00;;;3.57;;
19747;SDS011;10032;51.386;12.516;2023-02-22T03:28:31;4.10;;;2.90;;
19747;SDS011;10032;51.386;12.516;2023-02-22T03:31:01;5.90;;;3.80;;
19747;SDS011;10032;51.386;12.516;2023-02-22T03:33:32;3.33;;;2.87;;
19747;SDS011;10032;51.386;12.516;2023-02-22T03:38:50;5.57;;;2.80;;
19747;SDS011;10032;51.386;12.516;2023-02-22T03:41:22;4.33;;;3.03;;
19747;SDS011;10032;51.386;12.516;2023-02-22T03:43:49;5.67;;;2.90;;
19747;SDS011;10032;51.386;12.516;2023-02-22T03:46:38;2.93;;;2.30;;
19747;SDS011;10032;51.386;12.516;2023-02-22T03:49:09;4.97;;;3.17;;
19747;SDS011;10032;51.386;12.516;2023-02-22T03:51:35;6.07;;;3.43;;
19747;SDS011;10032;51.386;12.516;2023-02-22T03:54:02;3.80;;;2.83;;
19747;SDS011;10032;51.386;12.516;2023-02-22T03:56:29;4.97;;;3.23;;
19747;SDS011;10032;51.386;12.516;2023-02-22T03:59:01;7.83;;;3.90;;
19747;SDS011;10032;51.386;12.516;2023-02-22T04:01:31;4.03;;;3.57;;
19747;SDS011;10032;51.386;12.516;2023-02-22T04:03:57;7.00;;;3.73;;
19747;SDS011;10032;51.386;12.516;2023-02-22T04:06:23;4.03;;;3.40;;
19747;SDS011;10032;51.386;12.516;2023-02-22T04:08:48;5.03;;;3.83;;
19747;SDS011;10032;51.386;12.516;2023-02-22T04:11:13;5.13;;;3.53;;
19747;SDS011;10032;51.386;12.516;2023-02-22T04:13:39;8.27;;;4.50;;
19747;SDS011;10032;51.386;12.516;2023-02-22T04:16:04;5.93;;;4.50;;
19747;SDS011;10032;51.386;12.516;2023-02-22T04:18:30;6.10;;;3.97;;
19747;SDS011;10032;51.386;12.516;2023-02-22T04:20:55;6.93;;;4.70;;
19747;SDS011;10032;51.386;12.516;2023-02-22T04:23:20;5.10;;;3.77;;
19747;SDS011;10032;51.386;12.516;2023-02-22T04:25:46;7.70;;;4.60;;
19747;SDS011;10032;51.386;12.516;2023-02-22T04:28:11;6.80;;;4.67;;
19747;SDS011;10032;51.386;12.516;2023-02-22T04:30:37;7.03;;;5.30;;
19747;SDS011;10032;51.386;12.516;2023-02-22T04:33:02;4.50;;;3.53;;
19747;SDS011;10032;51.386;12.516;2023-02-22T04:35:28;7.17;;;4.30;;
19747;SDS011;10032;51.386;12.516;2023-02-22T04:37:53;5.97;;;4.20;;
19747;SDS011;10032;51.386;12.516;2023-02-22T04:40:19;6.97;;;3.90;;
19747;SDS011;10032;51.386;12.516;2023-02-22T04:42:44;8.90;;;5.67;;
19747;SDS011;10032;51.386;12.516;2023-02-22T04:45:10;10.20;;;5.77;;
19747;SDS011;10032;51.386;12.516;2023-02-22T04:47:36;10.50;;;6.63;;
19747;SDS011;10032;51.386;12.516;2023-02-22T04:50:05;9.37;;;5.70;;
19747;SDS011;10032;51.386;12.516;2023-02-22T04:52:32;7.57;;;5.27;;
19747;SDS011;10032;51.386;12.516;2023-02-22T04:54:57;9.53;;;5.57;;
19747;SDS011;10032;51.386;12.516;2023-02-22T04:57:24;8.00;;;4.80;;
19747;SDS011;10032;51.386;12.516;2023-02-22T04:59:49;7.10;;;5.17;;
19747;SDS011;10032;51.386;12.516;2023-02-22T05:02:15;10.97;;;5.63;;
19747;SDS011;10032;51.386;12.516;2023-02-22T05:04:41;10.13;;;6.07;;
19747;SDS011;10032;51.386;12.516;2023-02-22T05:07:06;9.57;;;5.80;;
19747;SDS011;10032;51.386;12.516;2023-02-22T05:09:32;9.67;;;6.07;;
19747;SDS011;10032;51.386;12.516;2023-02-22T05:11:57;9.43;;;6.23;;
19747;SDS011;10032;51.386;12.516;2023-02-22T05:14:22;12.10;;;7.23;;
19747;SDS011;10032;51.386;12.516;2023-02-22T05:16:50;8.90;;;6.63;;
19747;SDS011;10032;51.386;12.516;2023-02-22T05:19:18;10.63;;;6.33;;
19747;SDS011;10032;51.386;12.516;2023-02-22T05:21:43;10.70;;;6.17;;
19747;SDS011;10032;51.386;12.516;2023-02-22T05:24:08;8.37;;;6.30;;
19747;SDS011;10032;51.386;12.516;2023-02-22T05:26:34;10.47;;;6.73;;
19747;SDS011;10032;51.386;12.516;2023-02-22T05:28:59;10.10;;;6.23;;
19747;SDS011;10032;51.386;12.516;2023-02-22T05:31:25;10.43;;;7.53;;
19747;SDS011;10032;51.386;12.516;2023-02-22T05:33:50;8.87;;;6.20;;
19747;SDS011;10032;51.386;12.516;2023-02-22T05:36:15;11.03;;;7.07;;
19747;SDS011;10032;51.386;12.516;2023-02-22T05:38:41;21.90;;;11.77;;
19747;SDS011;10032;51.386;12.516;2023-02-22T05:41:09;14.00;;;7.70;;
19747;SDS011;10032;51.386;12.516;2023-02-22T05:43:35;11.33;;;7.27;;
19747;SDS011;10032;51.386;12.516;2023-02-22T05:46:01;10.47;;;6.87;;
19747;SDS011;10032;51.386;12.516;2023-02-22T05:48:27;8.17;;;5.87;;
19747;SDS011;10032;51.386;12.516;2023-02-22T05:50:52;10.47;;;6.37;;
19747;SDS011;10032;51.386;12.516;2023-02-22T05:53:18;15.23;;;6.93;;
19747;SDS011;10032;51.386;12.516;2023-02-22T05:55:43;10.27;;;8.03;;
19747;SDS011;10032;51.386;12.516;2023-02-22T05:58:08;10.83;;;6.97;;
19747;SDS011;10032;51.386;12.516;2023-02-22T06:00:34;11.67;;;6.67;;
19747;SDS011;10032;51.386;12.516;2023-02-22T06:03:01;11.13;;;7.33;;
19747;SDS011;10032;51.386;12.516;2023-02-22T06:05:28;8.87;;;5.27;;
19747;SDS011;10032;51.386;12.516;2023-02-22T06:07:54;11.47;;;7.17;;
19747;SDS011;10032;51.386;12.516;2023-02-22T06:10:20;10.70;;;6.43;;
19747;SDS011;10032;51.386;12.516;2023-02-22T06:12:46;12.10;;;8.03;;
19747;SDS011;10032;51.386;12.516;2023-02-22T06:15:15;11.50;;;8.60;;
19747;SDS011;10032;51.386;12.516;2023-02-22T06:17:41;12.80;;;8.27;;
19747;SDS011;10032;51.386;12.516;2023-02-22T06:20:08;10.53;;;7.27;;
19747;SDS011;10032;51.386;12.516;2023-02-22T06:22:35;11.43;;;7.13;;
19747;SDS011;10032;51.386;12.516;2023-02-22T06:25:04;13.10;;;8.23;;
19747;SDS011;10032;51.386;12.516;2023-02-22T06:27:30;8.13;;;5.67;;
19747;SDS011;10032;51.386;12.516;2023-02-22T06:29:57;14.67;;;7.43;;
19747;SDS011;10032;51.386;12.516;2023-02-22T06:32:23;13.03;;;8.13;;
19747;SDS011;10032;51.386;12.516;2023-02-22T06:34:48;17.57;;;8.37;;
19747;SDS011;10032;51.386;12.516;2023-02-22T06:37:13;13.10;;;8.37;;
19747;SDS011;10032;51.386;12.516;2023-02-22T06:39:39;13.30;;;7.70;;
19747;SDS011;10032;51.386;12.516;2023-02-22T06:42:04;10.57;;;7.60;;
19747;SDS011;10032;51.386;12.516;2023-02-22T06:44:30;10.97;;;7.53;;
19747;SDS011;10032;51.386;12.516;2023-02-22T06:46:55;13.63;;;7.00;;
19747;SDS011;10032;51.386;12.516;2023-02-22T06:49:21;9.50;;;6.70;;
19747;SDS011;10032;51.386;12.516;2023-02-22T06:51:46;10.97;;;6.63;;
19747;SDS011;10032;51.386;12.516;2023-02-22T06:54:12;12.07;;;7.37;;
19747;SDS011;10032;51.386;12.516;2023-02-22T06:56:38;10.97;;;7.00;;
19747;SDS011;10032;51.386;12.516;2023-02-22T06:59:03;11.37;;;7.07;;
19747;SDS011;10032;51.386;12.516;2023-02-22T07:01:29;14.23;;;8.70;;
19747;SDS011;10032;51.386;12.516;2023-02-22T07:03:55;11.20;;;6.37;;
19747;SDS011;10032;51.386;12.516;2023-02-22T07:06:21;11.63;;;7.60;;
19747;SDS011;10032;51.386;12.516;2023-02-22T07:08:47;14.97;;;7.20;;
19747;SDS011;10032;51.386;12.516;2023-02-22T07:11:12;13.80;;;7.83;;
19747;SDS011;10032;51.386;12.516;2023-02-22T07:13:38;13.40;;;8.00;;
19747;SDS011;10032;51.386;12.516;2023-02-22T07:16:03;16.53;;;7.63;;
19747;SDS011;10032;51.386;12.516;2023-02-22T07:18:29;15.13;;;8.67;;
19747;SDS011;10032;51.386;12.516;2023-02-22T07:20:55;9.90;;;6.83;;
19747;SDS011;10032;51.386;12.516;2023-02-22T07:23:22;11.47;;;7.60;;
19747;SDS011;10032;51.386;12.516;2023-02-22T07:25:48;13.40;;;8.70;;
19747;SDS011;10032;51.386;12.516;2023-02-22T07:28:13;14.00;;;7.07;;
19747;SDS011;10032;51.386;12.516;2023-02-22T07:30:39;10.00;;;7.03;;
19747;SDS011;10032;51.386;12.516;2023-02-22T07:33:09;13.30;;;8.20;;
19747;SDS011;10032;51.386;12.516;2023-02-22T07:35:37;10.27;;;7.60;;
19747;SDS011;10032;51.386;12.516;2023-02-22T07:38:07;12.30;;;6.63;;
19747;SDS011;10032;51.386;12.516;2023-02-22T07:40:35;11.03;;;7.70;;
19747;SDS011;10032;51.386;12.516;2023-02-22T07:43:43;11.63;;;7.40;;
19747;SDS011;10032;51.386;12.516;2023-02-22T07:45:55;10.73;;;6.73;;
19747;SDS011;10032;51.386;12.516;2023-02-22T07:48:23;14.87;;;7.93;;
19747;SDS011;10032;51.386;12.516;2023-02-22T07:50:50;17.40;;;8.40;;
19747;SDS011;10032;51.386;12.516;2023-02-22T07:53:23;12.17;;;7.07;;
19747;SDS011;10032;51.386;12.516;2023-02-22T07:55:49;14.60;;;7.77;;
19747;SDS011;10032;51.386;12.516;2023-02-22T07:58:16;16.63;;;7.50;;
19747;SDS011;10032;51.386;12.516;2023-02-22T08:00:43;15.07;;;8.57;;
19747;SDS011;10032;51.386;12.516;2023-02-22T08:03:10;12.20;;;8.20;;
19747;SDS011;10032;51.386;12.516;2023-02-22T08:05:38;10.83;;;7.10;;
19747;SDS011;10032;51.386;12.516;2023-02-22T08:08:04;12.67;;;8.33;;
19747;SDS011;10032;51.386;12.516;2023-02-22T08:10:31;19.27;;;10.70;;
19747;SDS011;10032;51.386;12.516;2023-02-22T08:12:58;16.77;;;11.03;;
19747;SDS011;10032;51.386;12.516;2023-02-22T08:15:25;14.67;;;9.27;;
19747;SDS011;10032;51.386;12.516;2023-02-22T08:17:52;16.73;;;10.00;;
19747;SDS011;10032;51.386;12.516;2023-02-22T08:20:19;12.93;;;7.20;;
19747;SDS011;10032;51.386;12.516;2023-02-22T08:22:46;17.43;;;9.67;;
19747;SDS011;10032;51.386;12.516;2023-02-22T08:25:12;18.10;;;8.80;;
19747;SDS011;10032;51.386;12.516;2023-02-22T08:27:39;12.80;;;7.47;;
19747;SDS011;10032;51.386;12.516;2023-02-22T08:30:06;16.03;;;8.63;;
19747;SDS011;10032;51.386;12.516;2023-02-22T08:32:32;13.43;;;8.83;;
19747;SDS011;10032;51.386;12.516;2023-02-22T08:34:59;15.83;;;9.13;;
19747;SDS011;10032;51.386;12.516;2023-02-22T08:37:26;16.53;;;8.60;;
19747;SDS011;10032;51.386;12.516;2023-02-22T08:39:51;15.20;;;7.90;;
19747;SDS011;10032;51.386;12.516;2023-02-22T08:42:17;18.60;;;9.40;;
19747;SDS011;10032;51.386;12.516;2023-02-22T08:44:43;14.37;;;7.93;;
19747;SDS011;10032;51.386;12.516;2023-02-22T08:47:08;13.37;;;7.83;;
19747;SDS011;10032;51.386;12.516;2023-02-22T08:49:34;18.97;;;9.60;;
19747;SDS011;10032;51.386;12.516;2023-02-22T08:51:59;18.37;;;10.50;;
19747;SDS011;10032;51.386;12.516;2023-02-22T08:54:25;15.73;;;8.97;;
19747;SDS011;10032;51.386;12.516;2023-02-22T08:56:50;15.03;;;8.30;;
19747;SDS011;10032;51.386;12.516;2023-02-22T08:59:16;21.20;;;12.03;;
19747;SDS011;10032;51.386;12.516;2023-02-22T09:01:41;27.07;;;16.07;;
19747;SDS011;10032;51.386;12.516;2023-02-22T09:04:07;21.50;;;13.17;;
19747;SDS011;10032;51.386;12.516;2023-02-22T09:06:33;16.87;;;9.90;;
19747;SDS011;10032;51.386;12.516;2023-02-22T09:08:59;20.53;;;10.13;;
19747;SDS011;10032;51.386;12.516;2023-02-22T09:11:25;18.40;;;11.53;;
19747;SDS011;10032;51.386;12.516;2023-02-22T09:13:50;16.93;;;8.93;;
19747;SDS011;10032;51.386;12.516;2023-02-22T09:16:15;17.80;;;8.97;;
19747;SDS011;10032;51.386;12.516;2023-02-22T09:18:41;16.80;;;9.90;;
19747;SDS011;10032;51.386;12.516;2023-02-22T09:21:06;18.47;;;9.63;;
19747;SDS011;10032;51.386;12.516;2023-02-22T09:23:32;18.20;;;9.50;;
19747;SDS011;10032;51.386;12.516;2023-02-22T09:25:58;18.67;;;11.83;;
19747;SDS011;10032;51.386;12.516;2023-02-22T09:28:24;17.93;;;9.83;;
19747;SDS011;10032;51.386;12.516;2023-02-22T09:30:53;13.07;;;7.97;;
19747;SDS011;10032;51.386;12.516;2023-02-22T09:33:18;16.50;;;9.20;;
19747;SDS011;10032;51.386;12.516;2023-02-22T09:35:46;17.40;;;9.63;;
19747;SDS011;10032;51.386;12.516;2023-02-22T09:38:14;15.50;;;8.47;;
19747;SDS011;10032;51.386;12.516;2023-02-22T09:40:44;17.50;;;9.67;;
19747;SDS011;10032;51.386;12.516;2023-02-22T09:48:26;18.33;;;10.70;;
19747;SDS011;10032;51.386;12.516;2023-02-22T09:50:56;19.17;;;10.93;;
19747;SDS011;10032;51.386;12.516;2023-02-22T09:53:26;12.87;;;7.60;;
19747;SDS011;10032;51.386;12.516;2023-02-22T09:55:58;16.80;;;8.63;;
19747;SDS011;10032;51.386;12.516;2023-02-22T09:58:32;12.40;;;7.53;;
19747;SDS011;10032;51.386;12.516;2023-02-22T10:09:40;13.67;;;7.53;;
19747;SDS011;10032;51.386;12.516;2023-02-22T10:20:45;13.13;;;7.40;;
19747;SDS011;10032;51.386;12.516;2023-02-22T10:26:41;10.53;;;7.10;;
19747;SDS011;10032;51.386;12.516;2023-02-22T10:29:29;14.83;;;6.70;;
19747;SDS011;10032;51.386;12.516;2023-02-22T10:32:02;13.27;;;7.40;;
19747;SDS011;10032;51.386;12.516;2023-02-22T10:34:40;11.13;;;6.50;;
19747;SDS011;10032;51.386;12.516;2023-02-22T10:40:02;17.10;;;8.30;;
19747;SDS011;10032;51.386;12.516;2023-02-22T10:42:37;14.13;;;8.03;;
19747;SDS011;10032;51.386;12.516;2023-02-22T10:45:03;9.83;;;5.83;;
19747;SDS011;10032;51.386;12.516;2023-02-22T10:47:29;13.33;;;6.50;;
19747;SDS011;10032;51.386;12.516;2023-02-22T10:49:56;13.20;;;6.83;;
19747;SDS011;10032;51.386;12.516;2023-02-22T10:52:25;11.00;;;6.13;;
19747;SDS011;10032;51.386;12.516;2023-02-22T10:54:54;11.77;;;6.10;;
19747;SDS011;10032;51.386;12.516;2023-02-22T10:57:22;12.87;;;6.93;;
19747;SDS011;10032;51.386;12.516;2023-02-22T10:59:51;12.33;;;7.07;;
19747;SDS011;10032;51.386;12.516;2023-02-22T11:02:18;11.67;;;6.30;;
19747;SDS011;10032;51.386;12.516;2023-02-22T11:07:20;12.33;;;6.73;;
19747;SDS011;10032;51.386;12.516;2023-02-22T11:10:04;11.57;;;6.20;;
19747;SDS011;10032;51.386;12.516;2023-02-22T11:12:34;13.77;;;6.90;;
19747;SDS011;10032;51.386;12.516;2023-02-22T11:17:46;13.73;;;7.50;;
19747;SDS011;10032;51.386;12.516;2023-02-22T11:22:49;10.83;;;6.77;;
19747;SDS011;10032;51.386;12.516;2023-02-22T11:25:19;12.90;;;6.97;;
19747;SDS011;10032;51.386;12.516;2023-02-22T11:27:48;10.40;;;6.17;;
19747;SDS011;10032;51.386;12.516;2023-02-22T11:32:48;10.37;;;6.03;;
19747;SDS011;10032;51.386;12.516;2023-02-22T11:35:38;9.87;;;5.43;;
19747;SDS011;10032;51.386;12.516;2023-02-22T11:38:15;10.00;;;6.10;;
19747;SDS011;10032;51.386;12.516;2023-02-22T11:41:34;9.60;;;5.60;;
19747;SDS011;10032;51.386;12.516;2023-02-22T11:43:48;8.90;;;5.40;;
19747;SDS011;10032;51.386;12.516;2023-02-22T11:46:16;10.00;;;5.80;;
19747;SDS011;10032;51.386;12.516;2023-02-22T11:48:57;6.87;;;4.90;;
19747;SDS011;10032;51.386;12.516;2023-02-22T11:52:03;6.07;;;4.80;;
19747;SDS011;10032;51.386;12.516;2023-02-22T12:11:07;7.83;;;5.13;;
19747;SDS011;10032;51.386;12.516;2023-02-22T12:13:49;8.60;;;5.23;;
19747;SDS011;10032;51.386;12.516;2023-02-22T12:16:27;10.20;;;5.83;;
19747;SDS011;10032;51.386;12.516;2023-02-22T12:21:57;9.37;;;5.10;;
19747;SDS011;10032;51.386;12.516;2023-02-22T12:24:29;9.73;;;5.40;;
19747;SDS011;10032;51.386;12.516;2023-02-22T12:27:10;11.85;;;6.15;;
19747;SDS011;10032;51.386;12.516;2023-02-22T12:29:48;10.53;;;5.13;;
19747;SDS011;10032;51.386;12.516;2023-02-22T12:32:19;6.68;;;4.55;;
19747;SDS011;10032;51.386;12.516;2023-02-22T12:34:57;7.20;;;5.13;;
19747;SDS011;10032;51.386;12.516;2023-02-22T12:40:15;11.47;;;5.57;;
19747;SDS011;10032;51.386;12.516;2023-02-22T12:43:01;7.83;;;4.90;;
19747;SDS011;10032;51.386;12.516;2023-02-22T12:45:42;6.25;;;4.07;;
19747;SDS011;10032;51.386;12.516;2023-02-22T12:51:13;5.40;;;4.43;;
19747;SDS011;10032;51.386;12.516;2023-02-22T12:56:52;8.40;;;4.40;;
19747;SDS011;10032;51.386;12.516;2023-02-22T12:59:19;8.17;;;4.90;;
19747;SDS011;10032;51.386;12.516;2023-02-22T13:01:53;7.25;;;4.10;;
19747;SDS011;10032;51.386;12.516;2023-02-22T13:04:23;7.07;;;3.97;;
19747;SDS011;10032;51.386;12.516;2023-02-22T13:18:16;7.00;;;4.07;;
19747;SDS011;10032;51.386;12.516;2023-02-22T13:20:59;9.17;;;4.87;;
19747;SDS011;10032;51.386;12.516;2023-02-22T13:23:31;6.18;;;3.70;;
19747;SDS011;10032;51.386;12.516;2023-02-22T13:31:21;7.20;;;4.85;;
19747;SDS011;10032;51.386;12.516;2023-02-22T13:53:12;6.43;;;4.27;;
19747;SDS011;10032;51.386;12.516;2023-02-22T13:55:42;8.53;;;5.47;;
19747;SDS011;10032;51.386;12.516;2023-02-22T13:58:15;6.10;;;4.03;;
19747;SDS011;10032;51.386;12.516;2023-02-22T14:00:43;7.40;;;4.83;;
19747;SDS011;10032;51.386;12.516;2023-02-22T14:13:12;4.80;;;3.90;;
19747;SDS011;10032;51.386;12.516;2023-02-22T14:16:26;7.17;;;3.70;;
19747;SDS011;10032;51.386;12.516;2023-02-22T14:23:48;6.68;;;4.07;;
19747;SDS011;10032;51.386;12.516;2023-02-22T14:31:25;7.03;;;4.03;;
19747;SDS011;10032;51.386;12.516;2023-02-22T14:36:40;5.80;;;4.03;;
19747;SDS011;10032;51.386;12.516;2023-02-22T14:44:47;6.27;;;3.50;;
19747;SDS011;10032;51.386;12.516;2023-02-22T14:47:23;7.30;;;4.22;;
19747;SDS011;10032;51.386;12.516;2023-02-22T14:49:54;4.87;;;3.40;;
19747;SDS011;10032;51.386;12.516;2023-02-22T14:52:29;6.67;;;3.47;;
19747;SDS011;10032;51.386;12.516;2023-02-22T14:55:01;4.80;;;2.83;;
19747;SDS011;10032;51.386;12.516;2023-02-22T15:00:25;5.50;;;3.20;;
19747;SDS011;10032;51.386;12.516;2023-02-22T15:03:10;4.73;;;3.13;;
19747;SDS011;10032;51.386;12.516;2023-02-22T15:05:42;4.93;;;3.70;;
19747;SDS011;10032;51.386;12.516;2023-02-22T15:08:08;4.27;;;3.07;;
19747;SDS011;10032;51.386;12.516;2023-02-22T15:10:47;5.10;;;3.77;;
19747;SDS011;10032;51.386;12.516;2023-02-22T15:13:17;4.90;;;2.87;;
19747;SDS011;10032;51.386;12.516;2023-02-22T15:15:57;5.17;;;3.00;;
19747;SDS011;10032;51.386;12.516;2023-02-22T15:18:36;4.53;;;3.13;;
19747;SDS011;10032;51.386;12.516;2023-02-22T15:21:06;4.97;;;3.07;;
19747;SDS011;10032;51.386;12.516;2023-02-22T15:23:42;4.93;;;3.10;;
19747;SDS011;10032;51.386;12.516;2023-02-22T15:26:20;4.47;;;2.77;;
19747;SDS011;10032;51.386;12.516;2023-02-22T15:28:52;7.33;;;3.10;;
19747;SDS011;10032;51.386;12.516;2023-02-22T15:31:37;3.10;;;2.50;;
19747;SDS011;10032;51.386;12.516;2023-02-22T15:36:43;5.33;;;3.00;;
19747;SDS011;10032;51.386;12.516;2023-02-22T15:39:21;5.40;;;3.40;;
19747;SDS011;10032;51.386;12.516;2023-02-22T15:42:07;5.87;;;2.97;;
19747;SDS011;10032;51.386;12.516;2023-02-22T15:44:41;4.17;;;2.80;;
19747;SDS011;10032;51.386;12.516;2023-02-22T15:47:10;4.23;;;2.80;;
19747;SDS011;10032;51.386;12.516;2023-02-22T15:49:40;4.27;;;3.00;;
19747;SDS011;10032;51.386;12.516;2023-02-22T15:52:07;3.03;;;2.60;;
19747;SDS011;10032;51.386;12.516;2023-02-22T15:54:44;4.33;;;3.23;;
19747;SDS011;10032;51.386;12.516;2023-02-22T15:57:15;4.80;;;2.97;;
19747;SDS011;10032;51.386;12.516;2023-02-22T15:59:49;3.93;;;3.07;;
19747;SDS011;10032;51.386;12.516;2023-02-22T16:02:30;3.47;;;2.53;;
19747;SDS011;10032;51.386;12.516;2023-02-22T16:05:05;3.30;;;2.90;;
19747;SDS011;10032;51.386;12.516;2023-02-22T16:07:31;3.70;;;3.30;;
19747;SDS011;10032;51.386;12.516;2023-02-22T16:10:00;4.50;;;3.03;;
19747;SDS011;10032;51.386;12.516;2023-02-22T16:12:32;4.87;;;3.30;;
19747;SDS011;10032;51.386;12.516;2023-02-22T16:15:00;3.43;;;3.13;;
19747;SDS011;10032;51.386;12.516;2023-02-22T16:22:35;5.33;;;3.63;;
19747;SDS011;10032;51.386;12.516;2023-02-22T16:30:54;8.97;;;4.10;;
19747;SDS011;10032;51.386;12.516;2023-02-22T16:33:21;4.67;;;3.50;;
19747;SDS011;10032;51.386;12.516;2023-02-22T16:35:46;6.07;;;3.30;;
19747;SDS011;10032;51.386;12.516;2023-02-22T16:38:21;7.17;;;3.63;;
19747;SDS011;10032;51.386;12.516;2023-02-22T16:40:51;8.03;;;3.77;;
19747;SDS011;10032;51.386;12.516;2023-02-22T16:43:23;7.63;;;4.33;;
19747;SDS011;10032;51.386;12.516;2023-02-22T16:45:50;4.30;;;3.73;;
19747;SDS011;10032;51.386;12.516;2023-02-22T16:48:21;6.63;;;4.37;;
19747;SDS011;10032;51.386;12.516;2023-02-22T16:50:52;6.77;;;4.00;;
19747;SDS011;10032;51.386;12.516;2023-02-22T16:53:23;6.13;;;3.67;;
19747;SDS011;10032;51.386;12.516;2023-02-22T16:55:50;9.83;;;5.43;;
19747;SDS011;10032;51.386;12.516;2023-02-22T16:58:21;6.80;;;5.03;;
19747;SDS011;10032;51.386;12.516;2023-02-22T17:00:52;7.87;;;5.40;;
19747;SDS011;10032;51.386;12.516;2023-02-22T17:03:18;8.53;;;4.93;;
19747;SDS011;10032;51.386;12.516;2023-02-22T17:05:45;8.57;;;5.17;;
19747;SDS011;10032;51.386;12.516;2023-02-22T17:08:10;7.73;;;4.77;;
19747;SDS011;10032;51.386;12.516;2023-02-22T17:10:36;10.37;;;5.83;;
19747;SDS011;10032;51.386;12.516;2023-02-22T17:13:01;11.30;;;6.20;;
19747;SDS011;10032;51.386;12.516;2023-02-22T17:15:29;10.70;;;6.27;;
19747;SDS011;10032;51.386;12.516;2023-02-22T17:18:03;12.10;;;6.80;;
19747;SDS011;10032;51.386;12.516;2023-02-22T17:20:37;11.40;;;6.57;;
19747;SDS011;10032;51.386;12.516;2023-02-22T17:23:04;15.23;;;7.10;;
19747;SDS011;10032;51.386;12.516;2023-02-22T17:25:41;11.27;;;7.77;;
19747;SDS011;10032;51.386;12.516;2023-02-22T17:28:09;13.57;;;7.10;;
19747;SDS011;10032;51.386;12.516;2023-02-22T17:30:35;11.37;;;7.00;;
19747;SDS011;10032;51.386;12.516;2023-02-22T17:33:03;11.80;;;7.23;;
19747;SDS011;10032;51.386;12.516;2023-02-22T17:35:31;16.03;;;8.80;;
19747;SDS011;10032;51.386;12.516;2023-02-22T17:37:58;17.30;;;9.13;;
19747;SDS011;10032;51.386;12.516;2023-02-22T17:40:25;14.47;;;8.37;;
19747;SDS011;10032;51.386;12.516;2023-02-22T17:42:52;14.37;;;8.30;;
19747;SDS011;10032;51.386;12.516;2023-02-22T17:45:19;18.20;;;9.83;;